Flight Track Log - Related Links

Times and Time Zones

All times are in EDT time to prevent confusion due to time zone crossing. See the SKW5646 flight status page for this flight to view local times or setup timezone preferences in your user account.

Time Position Orientation Groundspeed Altitude Reporting Facility
EDT Latitude Longitude Course Direction KTS MPH feet Rate Location/Type
Sat 02:41:59 PM 37.6667 -122.3667 152° Southeast 156 180 1,600  Level Northern TRACON
Sat 02:42:53 PM 37.7000 -122.3833 338° Northwest 196 226 2,800 1,421 Climbing Northern TRACON
Sat 02:43:53 PM 37.6667 -122.4167 218° Southwest 201 231 4,300 1,600 Climbing Northern TRACON
Sat 02:44:53 PM 37.6000 -122.4167 180° South 206 237 6,000 1,519 Climbing Northern TRACON
Sat 02:45:00 PM 37.3937 -122.4948 202° Southwest  Level FlightAware
Sat 02:45:12 PM 37.5933 -122.4203 203° Southwest 200 230 6,300  Level Oakland Center
Sat 02:46:00 PM 37.3070 -122.5454 208° Southwest  Level FlightAware
Sat 02:46:13 PM 37.5464 -122.4517 208° Southwest 199 229 7,900  Level Oakland Center
Sat 02:47:00 PM 37.2441 -122.5794 152° Southeast  Level FlightAware
Sat 02:47:15 PM 37.5042 -122.4986 221° Southwest 201 231 9,500  Level Oakland Center
Sat 02:48:16 PM 37.4511 -122.5331 207° Southwest 211 243 11,100 1,672 Climbing Oakland Center
Sat 02:49:17 PM 37.3789 -122.5150 169° South 219 252 12,900 1,659 Climbing Oakland Center
Sat 02:50:19 PM 37.3178 -122.5003 169° South 224 258 14,500 1,415 Climbing Oakland Center
Sat 02:51:20 PM 37.2550 -122.4844 169° South 228 262 15,800 1,268 Climbing Oakland Center
Sat 02:52:22 PM 37.1892 -122.4686 169° South 241 277 17,100 1,463 Climbing Oakland Center
Sat 02:53:23 PM 37.1239 -122.4514 168° South 240 276 18,800 1,328 Climbing Oakland Center
Sat 02:54:24 PM 37.0606 -122.4197 158° South 249 287 19,800 1,024 Climbing Oakland Center
Sat 02:55:26 PM 36.9986 -122.3722 149° Southeast 260 299 20,900 1,073 Climbing Oakland Center
Sat 02:56:27 PM 36.9353 -122.3244 149° Southeast 263 303 22,000 1,033 Climbing Oakland Center
Sat 02:57:28 PM 36.8728 -122.2767 149° Southeast 264 304 23,000 488 Climbing Oakland Center
Sat 02:58:30 PM 36.7900 -122.2172 150° Southeast 285 328 23,000  Level Oakland Center
Sat 02:59:31 PM 36.7211 -122.1611 147° Southeast 294 338 23,000  Level Oakland Center
Sat 03:00:32 PM 36.6589 -122.0953 140° Southeast 294 338 23,000  Level Oakland Center
Sat 03:01:34 PM 36.5944 -122.0306 141° Southeast 297 342 23,000  Level Oakland Center
Sat 03:02:35 PM 36.5289 -121.9675 142° Southeast 299 344 23,000  Level Oakland Center
Sat 03:03:36 PM 36.4636 -121.9042 142° Southeast 299 344 23,000  Level Oakland Center
Sat 03:04:38 PM 36.3975 -121.8422 143° Southeast 299 344 23,000  Level Oakland Center
Sat 03:05:39 PM 36.3219 -121.7703 142° Southeast 299 344 23,000  Level Oakland Center
Sat 03:06:40 PM 36.2567 -121.7050 141° Southeast 301 346 23,000  Level Oakland Center
Sat 03:07:41 PM 36.1903 -121.6419 143° Southeast 301 346 23,000  Level Oakland Center
Sat 03:08:43 PM 36.1228 -121.5781 143° Southeast 303 349 23,000  Level Oakland Center
Sat 03:09:44 PM 36.0569 -121.5139 142° Southeast 303 349 23,000  Level Oakland Center
Sat 03:10:45 PM 35.9906 -121.4508 142° Southeast 301 346 23,000  Level Oakland Center
Sat 03:11:46 PM 35.9247 -121.3892 143° Southeast 298 343 23,000  Level Oakland Center
Sat 03:12:48 PM 35.8594 -121.3261 142° Southeast 298 343 23,000  Level Oakland Center
Sat 03:13:49 PM 35.7822 -121.2528 142° Southeast 294 338 23,000  Level Oakland Center
Sat 03:14:50 PM 35.7181 -121.1919 142° Southeast 291 335 23,000  Level Oakland Center
Sat 03:15:52 PM 35.6533 -121.1303 142° Southeast 294 338 23,000  Level Oakland Center
Sat 03:16:53 PM 35.5892 -121.0697 142° Southeast 292 336 23,000  Level Oakland Center
Sat 03:17:54 PM 35.5258 -121.0097 142° Southeast 290 334 23,000  Level Oakland Center
Sat 03:18:56 PM 35.4628 -120.9492 142° Southeast 289 333 23,000  Level Oakland Center
Sat 03:19:57 PM 35.3986 -120.8911 144° Southeast 288 331 23,000  Level Oakland Center
Sat 03:20:42 PM 35.3472 -120.8431 143° Southeast 289 333 23,000  Level Los Center
Sat 03:21:44 PM 35.2836 -120.7847 143° Southeast 286 329 23,000  Level Los Center
Sat 03:22:45 PM 35.2200 -120.7275 144° Southeast 285 328 23,000  Level Los Center
Sat 03:23:47 PM 35.1578 -120.6667 141° Southeast 285 328 23,000 -145 Level Los Center
Sat 03:24:49 PM 35.0942 -120.6078 143° Southeast 286 329 22,700 -919 Descending Los Center
Sat 03:25:51 PM 35.0117 -120.5331 143° Southeast 305 351 21,100 -1,452 Descending Los Center
Sat 03:26:53 PM 34.9456 -120.4711 142° Southeast 300 345 19,700 -1,790 Descending Los Center
Sat 03:27:55 PM 34.8831 -120.4147 143° Southeast 282 325 17,400 -2,032 Descending Los Center
Sat 03:28:57 PM 34.8214 -120.3561 142° Southeast 280 322 15,500 -1,790 Descending Los Center
Sat 03:29:59 PM 34.7597 -120.3017 144° Southeast 273 314 13,700 -1,790 Descending Los Center
Sat 03:31:01 PM 34.6936 -120.2603 153° Southeast 268 308 11,800 -1,805 Descending Los Center
Sat 03:32:02 PM 34.6289 -120.2181 152° Southeast 264 304 10,000 -2,053 Descending Los Center
Sat 03:32:17 PM 34.5986 -120.2131 172° South 250 288 9,200 -1,935 Descending Los Center
Sat 03:33:04 PM 34.5564 -120.2056 172° South 247 284 8,000 -1,706 Descending Los Center
Sat 03:34:06 PM 34.4908 -120.1961 173° South 238 274 6,100 -1,887 Descending Los Center
Sat 03:35:08 PM 34.4378 -120.1583 150° Southeast 236 272 4,100 -1,935 Descending Los Center
Sat 03:36:10 PM 34.4239 -120.0756 101° East 216 249 2,100 -1,016 Descending Los Center
Sat 03:37:12 PM 34.4228 -120.0189 91° East 189 217 2,000 -97 Descending Los Center

Login

Don't have an account? Register now (free) for customized features, flight alerts, and more!